Time;durP1;ratioP1;P1;durP2;ratioP2;P2;SDS_P1;SDS_P2;PMS_P1;PMS_P2;Temp;Humidity;BMP_temperature;BMP_pressure;BME280_temperature;BME280_humidity;BME280_pressure;Samples;Min_cycle;Max_cycle;Signal;HPM_P1;HPM_P2
2022/04/06 00:01:45;;;;;;;;;;;8.10;99.90;;;;;;5057595;28;19964;-71
2022/04/06 00:04:13;;;;;;;;;;;8.10;99.90;;;;;;5062122;28;19920;-71
2022/04/06 00:06:40;;;;;;;;;;;8.10;99.90;;;;;;5062068;28;19921;-71
2022/04/06 00:09:07;;;;;;;;;;;8.10;99.90;;;;;;5062417;28;20204;-71
2022/04/06 00:11:33;;;;;;;;;;;8.10;99.90;;;;;;5063893;28;20120;-71
2022/04/06 00:14:00;;;;;;;;;;;8.10;99.90;;;;;;5066003;28;19921;-71
2022/04/06 00:16:27;;;;;;;;;;;8.10;99.90;;;;;;5065544;28;19921;-71
2022/04/06 00:18:53;;;;;;;;;;;8.00;99.90;;;;;;5066303;28;19921;-70
2022/04/06 00:21:23;;;;;;;;;;;8.00;99.90;;;;;;5066001;28;19921;-71
2022/04/06 00:23:50;;;;;;;;;;;8.00;99.90;;;;;;5066080;28;20189;-71
2022/04/06 00:26:16;;;;;;;;;;;8.00;99.90;;;;;;5065323;28;19921;-71
2022/04/06 00:28:43;;;;;;;;;;;8.00;99.90;;;;;;5065506;28;19924;-71
2022/04/06 00:31:09;;;;;;;;;;;8.00;99.90;;;;;;5065723;28;19928;-71
2022/04/06 00:33:36;;;;;;;;;;;8.00;99.90;;;;;;5065877;28;20163;-70
2022/04/06 00:36:05;;;;;;;;;;;8.00;99.90;;;;;;5065582;28;19921;-71
2022/04/06 00:38:32;;;;;;;;;;;8.00;99.90;;;;;;5065587;28;19924;-71
2022/04/06 00:40:59;;;;;;;;;;;7.90;99.90;;;;;;5065509;28;19921;-71
2022/04/06 00:43:25;;;;;;;;;;;8.00;99.90;;;;;;5065386;28;19979;-71
2022/04/06 00:45:52;;;;;;;;;;;8.00;99.90;;;;;;5059974;28;19920;-71
2022/04/06 00:48:19;;;;;;;;;;;8.00;99.90;;;;;;5064698;28;19928;-71
2022/04/06 00:50:45;;;;;;;;;;;8.00;99.90;;;;;;5063986;28;19928;-71
2022/04/06 00:53:12;;;;;;;;;;;8.00;99.90;;;;;;5064545;28;19936;-71
2022/04/06 00:55:41;;;;;;;;;;;7.90;99.90;;;;;;5064634;28;19920;-71
2022/04/06 00:58:07;;;;;;;;;;;7.90;99.90;;;;;;5065191;28;19921;-71
2022/04/06 01:00:34;;;;;;;;;;;7.90;99.90;;;;;;5065171;28;19928;-71
2022/04/06 01:03:01;;;;;;;;;;;7.90;99.90;;;;;;5065174;28;20314;-71
2022/04/06 01:05:28;;;;;;;;;;;7.90;99.90;;;;;;5064974;28;19950;-71
2022/04/06 01:07:56;;;;;;;;;;;8.00;99.90;;;;;;5064934;28;19996;-71
2022/04/06 01:10:22;;;;;;;;;;;8.00;99.90;;;;;;5065034;28;19925;-71
2022/04/06 01:12:50;;;;;;;;;;;8.00;99.90;;;;;;5064511;28;19929;-70
2022/04/06 01:15:18;;;;;;;;;;;8.00;99.90;;;;;;5064424;28;19921;-70
2022/04/06 01:17:45;;;;;;;;;;;7.90;99.90;;;;;;5064956;28;20204;-71
2022/04/06 01:20:12;;;;;;;;;;;8.00;99.90;;;;;;5059338;28;20226;-72
2022/04/06 01:22:40;;;;;;;;;;;7.90;99.90;;;;;;5057985;28;19921;-71
2022/04/06 01:25:07;;;;;;;;;;;7.80;99.90;;;;;;5060936;28;19921;-71
2022/04/06 01:27:34;;;;;;;;;;;7.90;99.90;;;;;;5064465;28;19943;-71
2022/04/06 01:30:01;;;;;;;;;;;7.80;99.90;;;;;;5064680;28;19927;-71
2022/04/06 01:32:30;;;;;;;;;;;7.90;99.90;;;;;;5064633;28;19920;-71
2022/04/06 01:34:57;;;;;;;;;;;7.80;99.90;;;;;;5064749;28;19924;-71
2022/04/06 01:37:24;;;;;;;;;;;7.80;99.90;;;;;;5064325;28;19928;-71
2022/04/06 01:39:52;;;;;;;;;;;7.90;99.90;;;;;;5064109;28;19928;-71
2022/04/06 01:42:19;;;;;;;;;;;7.80;99.90;;;;;;5064671;28;19987;-71
2022/04/06 01:44:47;;;;;;;;;;;7.80;99.90;;;;;;5064527;28;19927;-72
2022/04/06 01:47:15;;;;;;;;;;;7.80;99.90;;;;;;5063207;28;19921;-71
2022/04/06 01:52:25;;;;;;;;;;;7.80;99.90;;;;;;5063592;28;19963;-71
2022/04/06 01:54:54;;;;;;;;;;;7.80;99.90;;;;;;5063970;28;19928;-71
2022/04/06 01:57:21;;;;;;;;;;;7.80;99.90;;;;;;5064005;28;19943;-72
2022/04/06 01:59:48;;;;;;;;;;;7.80;99.90;;;;;;5060271;28;19959;-71
2022/04/06 02:02:15;;;;;;;;;;;7.80;99.90;;;;;;5063930;28;19928;-72
2022/04/06 02:04:42;;;;;;;;;;;7.80;99.90;;;;;;5064111;28;19921;-72
2022/04/06 02:07:09;;;;;;;;;;;7.80;99.90;;;;;;5063813;28;19921;-71
2022/04/06 02:09:37;;;;;;;;;;;7.90;99.90;;;;;;5063745;28;20266;-71
2022/04/06 02:12:06;;;;;;;;;;;7.80;99.90;;;;;;5063936;28;19920;-72
2022/04/06 02:14:32;;;;;;;;;;;7.80;99.90;;;;;;5063783;28;19927;-71
2022/04/06 02:16:59;;;;;;;;;;;7.80;99.90;;;;;;5063318;28;19970;-72
2022/04/06 02:19:26;;;;;;;;;;;7.80;99.90;;;;;;5064009;28;19929;-72
2022/04/06 02:21:53;;;;;;;;;;;7.80;99.90;;;;;;5064043;28;20055;-71
2022/04/06 02:24:19;;;;;;;;;;;7.80;99.90;;;;;;5063544;28;19921;-72
2022/04/06 02:26:46;;;;;;;;;;;7.90;99.90;;;;;;5063292;28;19921;-72
2022/04/06 02:29:15;;;;;;;;;;;7.90;99.90;;;;;;5062739;28;19921;-72
2022/04/06 02:31:42;;;;;;;;;;;7.90;99.90;;;;;;5063620;28;19920;-71
2022/04/06 02:34:09;;;;;;;;;;;7.90;99.90;;;;;;5063456;28;19948;-72
2022/04/06 02:36:35;;;;;;;;;;;7.80;99.90;;;;;;5063461;28;19920;-72
2022/04/06 02:39:02;;;;;;;;;;;7.90;99.90;;;;;;5063349;28;20223;-72
2022/04/06 02:41:28;;;;;;;;;;;7.90;99.90;;;;;;5063628;28;19927;-72
2022/04/06 02:43:55;;;;;;;;;;;7.80;99.90;;;;;;5063318;28;20199;-71
2022/04/06 02:46:23;;;;;;;;;;;7.80;99.90;;;;;;5055817;28;20220;-72
2022/04/06 02:48:49;;;;;;;;;;;7.80;99.90;;;;;;5063415;28;19943;-72
2022/04/06 02:51:16;;;;;;;;;;;7.90;99.90;;;;;;5063141;28;19924;-71
2022/04/06 02:53:43;;;;;;;;;;;7.90;99.90;;;;;;5063398;28;19929;-71
2022/04/06 02:56:09;;;;;;;;;;;7.80;99.90;;;;;;5057910;28;19928;-71
2022/04/06 02:58:36;;;;;;;;;;;7.90;99.90;;;;;;5063089;28;19925;-72
2022/04/06 03:01:02;;;;;;;;;;;7.90;99.90;;;;;;5062933;28;19920;-72
2022/04/06 03:03:30;;;;;;;;;;;7.90;99.90;;;;;;5062916;28;19924;-71
2022/04/06 03:05:57;;;;;;;;;;;7.90;99.90;;;;;;5062146;28;19921;-71
2022/04/06 03:08:23;;;;;;;;;;;7.90;99.90;;;;;;5061623;28;19927;-71
2022/04/06 03:10:50;;;;;;;;;;;7.90;99.90;;;;;;5063194;28;19920;-72
2022/04/06 03:13:16;;;;;;;;;;;7.90;99.90;;;;;;5062875;28;19927;-72
2022/04/06 03:15:43;;;;;;;;;;;7.90;99.90;;;;;;5061921;28;19921;-72
2022/04/06 03:18:11;;;;;;;;;;;7.90;99.90;;;;;;5062640;28;20124;-72
2022/04/06 03:20:39;;;;;;;;;;;7.90;99.90;;;;;;5063024;28;19921;-72
2022/04/06 03:23:05;;;;;;;;;;;7.90;99.90;;;;;;5062918;28;19935;-72
2022/04/06 03:25:32;;;;;;;;;;;7.90;99.90;;;;;;5062537;28;19928;-71
2022/04/06 03:27:58;;;;;;;;;;;7.90;99.90;;;;;;5062240;28;19932;-71
2022/04/06 03:30:25;;;;;;;;;;;7.90;99.90;;;;;;5062347;28;19935;-72
2022/04/06 03:32:51;;;;;;;;;;;7.90;99.90;;;;;;5062949;28;19925;-71
2022/04/06 03:35:18;;;;;;;;;;;7.90;99.90;;;;;;5062674;28;19921;-72
2022/04/06 03:37:46;;;;;;;;;;;7.90;99.90;;;;;;5062698;28;19936;-72
2022/04/06 03:40:13;;;;;;;;;;;7.90;99.90;;;;;;5049063;28;19921;-71
2022/04/06 03:42:40;;;;;;;;;;;7.90;99.90;;;;;;5062608;28;20097;-71
2022/04/06 03:45:07;;;;;;;;;;;7.90;99.90;;;;;;5062899;28;19928;-71
2022/04/06 03:47:35;;;;;;;;;;;8.00;99.90;;;;;;5065132;28;19920;-72
2022/04/06 03:50:02;;;;;;;;;;;8.00;99.90;;;;;;5066561;28;19928;-71
2022/04/06 03:52:28;;;;;;;;;;;8.00;99.90;;;;;;5066579;28;19971;-71
2022/04/06 03:54:56;;;;;;;;;;;8.00;99.90;;;;;;5066403;28;19944;-71
2022/04/06 03:57:24;;;;;;;;;;;8.00;99.90;;;;;;5065922;28;19935;-70
2022/04/06 03:59:51;;;;;;;;;;;7.90;99.90;;;;;;5066585;28;20004;-72
2022/04/06 04:02:17;;;;;;;;;;;7.90;99.90;;;;;;5066214;28;19921;-71
2022/04/06 04:04:44;;;;;;;;;;;7.90;99.90;;;;;;5066524;28;19925;-72
2022/04/06 04:07:10;;;;;;;;;;;7.90;99.90;;;;;;5065916;28;19921;-71
2022/04/06 04:09:37;;;;;;;;;;;7.90;99.90;;;;;;5066017;28;19921;-72
2022/04/06 04:12:06;;;;;;;;;;;8.00;99.90;;;;;;5065860;28;20124;-72
2022/04/06 04:14:34;;;;;;;;;;;8.00;99.90;;;;;;5066411;28;19928;-71
2022/04/06 04:17:00;;;;;;;;;;;8.00;99.90;;;;;;5065646;28;19920;-72
2022/04/06 04:19:27;;;;;;;;;;;7.90;99.90;;;;;;5065757;28;20200;-71
2022/04/06 04:21:53;;;;;;;;;;;8.00;99.90;;;;;;5065855;28;20112;-71
2022/04/06 04:24:20;;;;;;;;;;;8.00;99.90;;;;;;5065833;28;20200;-72
2022/04/06 04:26:46;;;;;;;;;;;8.00;99.90;;;;;;5065268;28;19921;-72
2022/04/06 04:29:14;;;;;;;;;;;8.00;99.90;;;;;;5050339;28;20208;-72
2022/04/06 04:31:41;;;;;;;;;;;8.00;99.90;;;;;;5057451;28;19967;-71
2022/04/06 04:34:08;;;;;;;;;;;8.00;99.90;;;;;;5061818;28;19927;-72
2022/04/06 04:36:35;;;;;;;;;;;8.00;99.90;;;;;;5064734;28;19984;-72
2022/04/06 04:39:02;;;;;;;;;;;8.00;99.90;;;;;;5065272;28;19933;-70
2022/04/06 04:41:29;;;;;;;;;;;8.00;99.90;;;;;;5062203;28;19951;-70
2022/04/06 04:43:56;;;;;;;;;;;8.00;99.90;;;;;;5064294;28;20307;-71
2022/04/06 04:46:24;;;;;;;;;;;8.10;99.90;;;;;;5049707;28;19927;-70
2022/04/06 04:48:50;;;;;;;;;;;8.00;99.90;;;;;;5065138;28;20223;-70
2022/04/06 04:51:17;;;;;;;;;;;8.00;99.90;;;;;;5063525;28;19928;-71
2022/04/06 04:53:43;;;;;;;;;;;8.00;99.90;;;;;;5065646;28;20226;-70
2022/04/06 04:56:10;;;;;;;;;;;8.00;99.90;;;;;;5065053;28;20120;-71
2022/04/06 04:58:37;;;;;;;;;;;8.00;99.90;;;;;;5064632;28;19920;-71
2022/04/06 05:01:04;;;;;;;;;;;8.00;99.90;;;;;;5065319;28;20216;-71
2022/04/06 05:03:32;;;;;;;;;;;8.00;99.90;;;;;;5065341;28;19921;-71
2022/04/06 05:05:58;;;;;;;;;;;8.00;99.90;;;;;;5064980;28;19920;-71
2022/04/06 05:08:25;;;;;;;;;;;8.00;99.90;;;;;;5064861;28;19921;-70
2022/04/06 05:10:52;;;;;;;;;;;8.10;99.90;;;;;;5064148;28;19928;-74
2022/04/06 05:13:18;;;;;;;;;;;8.10;99.90;;;;;;5064501;28;19921;-71
2022/04/06 05:15:45;;;;;;;;;;;8.10;99.90;;;;;;5064611;28;20262;-70
2022/04/06 05:18:11;;;;;;;;;;;8.00;99.90;;;;;;5064191;28;19927;-70
2022/04/06 05:20:40;;;;;;;;;;;8.00;99.90;;;;;;5064943;28;19921;-70
2022/04/06 05:23:06;;;;;;;;;;;8.10;99.90;;;;;;5065314;28;19921;-75
2022/04/06 05:25:33;;;;;;;;;;;8.10;99.90;;;;;;5065355;28;19927;-74
2022/04/06 05:28:00;;;;;;;;;;;8.10;99.90;;;;;;5065569;28;20104;-71
2022/04/06 05:30:38;;;;;;;;;;;8.10;99.90;;;;;;5064450;28;19927;-71
2022/04/06 05:33:04;;;;;;;;;;;8.10;99.90;;;;;;5065279;28;20258;-71
2022/04/06 05:35:31;;;;;;;;;;;8.10;99.90;;;;;;5064802;28;19921;-71
2022/04/06 05:37:59;;;;;;;;;;;8.10;99.90;;;;;;5064677;28;19921;-72
2022/04/06 05:40:26;;;;;;;;;;;8.10;99.90;;;;;;5064474;28;20135;-72
2022/04/06 05:42:53;;;;;;;;;;;8.00;99.90;;;;;;5064392;28;19927;-71
2022/04/06 05:45:19;;;;;;;;;;;8.10;99.90;;;;;;5064284;28;19936;-71
2022/04/06 05:47:46;;;;;;;;;;;8.10;99.90;;;;;;5064324;28;20108;-71
2022/04/06 05:50:14;;;;;;;;;;;8.10;99.90;;;;;;5064638;28;19920;-72
2022/04/06 05:52:41;;;;;;;;;;;8.20;99.90;;;;;;5065380;28;19966;-72
2022/04/06 05:55:09;;;;;;;;;;;8.20;99.90;;;;;;5066570;28;19932;-72
2022/04/06 05:57:36;;;;;;;;;;;8.20;99.90;;;;;;5065311;28;19921;-72
2022/04/06 06:00:04;;;;;;;;;;;8.30;99.90;;;;;;5064023;28;19928;-71
2022/04/06 06:02:30;;;;;;;;;;;8.20;99.90;;;;;;5064487;28;19920;-72
2022/04/06 06:04:57;;;;;;;;;;;8.30;99.90;;;;;;5064174;28;20147;-72
2022/04/06 06:07:23;;;;;;;;;;;8.30;99.90;;;;;;5063906;28;19929;-72
2022/04/06 06:09:50;;;;;;;;;;;8.30;99.90;;;;;;5062726;28;19928;-71
2022/04/06 06:12:18;;;;;;;;;;;8.40;99.90;;;;;;5063385;28;19927;-71
2022/04/06 06:14:44;;;;;;;;;;;8.30;99.90;;;;;;5063869;28;20212;-72
2022/04/06 06:17:11;;;;;;;;;;;8.40;99.90;;;;;;5063648;28;19921;-72
2022/04/06 06:19:37;;;;;;;;;;;8.40;99.90;;;;;;5063919;28;19927;-72
2022/04/06 06:22:04;;;;;;;;;;;8.50;99.90;;;;;;5063954;28;19921;-72
2022/04/06 06:24:31;;;;;;;;;;;8.50;99.90;;;;;;5063890;28;19921;-72
2022/04/06 06:26:58;;;;;;;;;;;8.50;99.90;;;;;;5063429;28;19943;-72
2022/04/06 06:29:26;;;;;;;;;;;8.50;99.90;;;;;;5062944;28;19921;-71
2022/04/06 06:31:54;;;;;;;;;;;8.50;99.90;;;;;;5064056;28;19927;-71
2022/04/06 06:34:21;;;;;;;;;;;8.60;99.90;;;;;;5063190;28;19956;-71
2022/04/06 06:36:48;;;;;;;;;;;8.60;99.90;;;;;;5063322;28;19984;-72
2022/04/06 06:39:14;;;;;;;;;;;8.70;99.90;;;;;;5063502;28;20204;-71
2022/04/06 06:41:42;;;;;;;;;;;8.60;99.90;;;;;;5063203;28;20101;-71
2022/04/06 06:44:09;;;;;;;;;;;8.60;99.90;;;;;;5063832;28;19988;-71
2022/04/06 06:46:36;;;;;;;;;;;8.70;99.90;;;;;;5063413;28;19927;-72
2022/04/06 06:49:03;;;;;;;;;;;8.70;99.90;;;;;;5063146;28;19927;-70
2022/04/06 06:51:31;;;;;;;;;;;8.80;99.90;;;;;;5062792;28;20246;-71
2022/04/06 06:53:58;;;;;;;;;;;8.80;99.90;;;;;;5063313;28;19988;-71
2022/04/06 06:56:24;;;;;;;;;;;9.00;99.90;;;;;;5062326;28;19920;-73
2022/04/06 06:58:51;;;;;;;;;;;9.00;99.90;;;;;;5063432;28;20115;-71
2022/04/06 07:01:18;;;;;;;;;;;9.00;99.90;;;;;;5063296;28;19944;-71
2022/04/06 07:03:46;;;;;;;;;;;9.10;99.90;;;;;;5063185;28;20254;-72
2022/04/06 07:06:12;;;;;;;;;;;9.10;99.90;;;;;;5062638;28;20089;-71
2022/04/06 07:08:39;;;;;;;;;;;9.10;99.90;;;;;;5061865;28;19943;-73
2022/04/06 07:11:05;;;;;;;;;;;9.20;99.90;;;;;;5059815;28;20148;-71
2022/04/06 07:13:32;;;;;;;;;;;9.20;99.90;;;;;;5050406;28;19927;-72
2022/04/06 07:15:58;;;;;;;;;;;9.30;99.90;;;;;;5062841;28;19927;-72
2022/04/06 07:18:25;;;;;;;;;;;9.30;99.90;;;;;;5063117;28;19921;-72
2022/04/06 07:20:53;;;;;;;;;;;9.40;99.90;;;;;;5065220;28;19920;-72
2022/04/06 07:23:19;;;;;;;;;;;9.40;99.90;;;;;;5066927;28;20238;-72
2022/04/06 07:25:46;;;;;;;;;;;9.50;99.90;;;;;;5066881;28;19929;-72
2022/04/06 07:28:12;;;;;;;;;;;9.50;99.90;;;;;;5067048;28;19921;-72
2022/04/06 07:30:39;;;;;;;;;;;9.60;99.90;;;;;;5066236;28;19920;-71
2022/04/06 07:33:09;;;;;;;;;;;9.60;99.90;;;;;;5066856;28;19920;-72
2022/04/06 07:35:37;;;;;;;;;;;9.70;99.90;;;;;;5066368;28;19921;-72
2022/04/06 07:38:05;;;;;;;;;;;9.70;99.90;;;;;;5066588;28;19920;-71
2022/04/06 07:40:31;;;;;;;;;;;9.80;99.90;;;;;;5067056;28;19929;-72
2022/04/06 07:42:59;;;;;;;;;;;9.70;99.90;;;;;;5066827;28;19924;-72
2022/04/06 07:45:25;;;;;;;;;;;9.80;99.90;;;;;;5066633;28;20212;-72
2022/04/06 07:47:52;;;;;;;;;;;9.80;99.90;;;;;;5066649;28;19927;-72
2022/04/06 07:50:20;;;;;;;;;;;9.80;99.90;;;;;;5066420;28;20209;-71
2022/04/06 07:52:46;;;;;;;;;;;9.80;99.90;;;;;;5066288;28;19929;-72
2022/04/06 07:55:15;;;;;;;;;;;9.80;99.90;;;;;;5066543;28;19924;-72
2022/04/06 07:57:42;;;;;;;;;;;9.80;99.90;;;;;;5066630;28;19921;-72
2022/04/06 08:00:09;;;;;;;;;;;9.80;99.90;;;;;;5066723;28;19921;-72
2022/04/06 08:02:36;;;;;;;;;;;9.80;99.90;;;;;;5066618;28;19992;-72
2022/04/06 08:05:04;;;;;;;;;;;9.80;99.90;;;;;;5066551;28;19920;-72
2022/04/06 08:07:31;;;;;;;;;;;9.80;99.90;;;;;;5063345;28;19960;-71
2022/04/06 08:09:57;;;;;;;;;;;9.80;99.90;;;;;;5063709;28;20212;-72
2022/04/06 08:12:25;;;;;;;;;;;9.80;99.90;;;;;;5066108;28;20231;-72
2022/04/06 08:14:52;;;;;;;;;;;9.70;99.90;;;;;;5065702;28;19925;-72
2022/04/06 08:17:18;;;;;;;;;;;9.70;99.90;;;;;;5064424;28;19927;-71
2022/04/06 08:19:45;;;;;;;;;;;9.70;99.90;;;;;;5065555;28;19927;-72
2022/04/06 08:22:11;;;;;;;;;;;9.70;99.90;;;;;;5064416;28;19920;-72
2022/04/06 08:24:38;;;;;;;;;;;9.70;99.90;;;;;;5065640;28;19958;-72
2022/04/06 08:27:05;;;;;;;;;;;9.70;99.90;;;;;;5065162;28;19991;-72
2022/04/06 08:29:33;;;;;;;;;;;9.70;99.90;;;;;;5065675;28;19982;-72
2022/04/06 08:32:00;;;;;;;;;;;9.70;99.90;;;;;;5064442;28;20205;-72
2022/04/06 08:34:27;;;;;;;;;;;9.80;99.90;;;;;;5065131;28;19935;-72
2022/04/06 08:36:53;;;;;;;;;;;9.80;99.90;;;;;;5065321;28;19930;-71
2022/04/06 08:39:20;;;;;;;;;;;9.80;99.90;;;;;;5065919;28;19920;-72
2022/04/06 08:41:46;;;;;;;;;;;9.80;99.90;;;;;;5065669;28;19928;-72
2022/04/06 08:44:13;;;;;;;;;;;9.80;99.90;;;;;;5065427;28;20099;-72
2022/04/06 08:46:41;;;;;;;;;;;9.90;99.90;;;;;;5065273;28;19921;-72
2022/04/06 08:49:08;;;;;;;;;;;9.90;99.90;;;;;;5065595;28;19929;-72
2022/04/06 08:51:35;;;;;;;;;;;10.00;99.90;;;;;;5065494;28;19927;-72
2022/04/06 08:54:01;;;;;;;;;;;10.00;99.90;;;;;;5065296;28;19959;-72
2022/04/06 08:56:28;;;;;;;;;;;10.00;99.90;;;;;;5064957;28;19920;-72
2022/04/06 08:58:54;;;;;;;;;;;10.00;99.90;;;;;;5065150;28;20204;-72
2022/04/06 09:01:21;;;;;;;;;;;10.10;99.90;;;;;;5065188;28;19921;-72
2022/04/06 09:03:50;;;;;;;;;;;10.10;99.90;;;;;;5065148;28;20205;-71
2022/04/06 09:06:19;;;;;;;;;;;10.00;99.90;;;;;;5065354;28;19928;-71
2022/04/06 09:08:47;;;;;;;;;;;10.10;99.90;;;;;;5064733;28;19921;-71
2022/04/06 09:11:14;;;;;;;;;;;10.10;99.90;;;;;;5065051;28;20239;-71
2022/04/06 09:13:42;;;;;;;;;;;10.10;99.90;;;;;;5064880;28;19929;-72
2022/04/06 09:16:09;;;;;;;;;;;10.10;99.90;;;;;;5064485;28;19965;-71
2022/04/06 09:18:36;;;;;;;;;;;10.10;99.90;;;;;;5064751;28;19927;-72
2022/04/06 09:21:05;;;;;;;;;;;10.10;99.90;;;;;;5065252;28;20204;-72
2022/04/06 09:23:32;;;;;;;;;;;10.10;99.90;;;;;;5064753;28;19921;-72
2022/04/06 09:26:01;;;;;;;;;;;10.10;99.90;;;;;;5064650;28;20120;-72
2022/04/06 09:28:28;;;;;;;;;;;10.10;99.90;;;;;;5064547;28;19940;-72
2022/04/06 09:30:55;;;;;;;;;;;10.20;99.90;;;;;;5065151;28;19921;-70
2022/04/06 09:33:22;;;;;;;;;;;10.20;99.90;;;;;;5064985;28;19946;-70
2022/04/06 09:35:48;;;;;;;;;;;10.30;99.90;;;;;;5064808;28;19921;-69
2022/04/06 09:38:19;;;;;;;;;;;10.40;99.90;;;;;;5064981;28;19927;-69
2022/04/06 09:40:46;;;;;;;;;;;10.40;99.90;;;;;;5063881;28;19920;-68
2022/04/06 09:43:25;;;;;;;;;;;10.50;99.90;;;;;;5063973;28;20220;-69
2022/04/06 09:48:51;;;;;;;;;;;10.50;99.90;;;;;;5064709;28;19923;-69
2022/04/06 09:51:18;;;;;;;;;;;10.50;99.90;;;;;;5064682;28;19927;-71
2022/04/06 09:53:47;;;;;;;;;;;10.60;99.90;;;;;;5064585;28;20208;-71
2022/04/06 09:56:15;;;;;;;;;;;10.60;99.90;;;;;;5064441;28;19943;-73
2022/04/06 09:58:42;;;;;;;;;;;10.50;99.90;;;;;;5064653;28;19920;-73
2022/04/06 10:01:09;;;;;;;;;;;10.50;99.90;;;;;;5064506;28;19921;-75
2022/04/06 10:03:38;;;;;;;;;;;10.50;99.90;;;;;;5064229;28;20120;-76
2022/04/06 10:06:05;;;;;;;;;;;10.60;99.90;;;;;;5063617;28;19927;-75
2022/04/06 10:08:32;;;;;;;;;;;10.60;99.90;;;;;;5064039;28;19920;-71
2022/04/06 10:11:00;;;;;;;;;;;10.70;99.90;;;;;;5064035;28;19920;-73
2022/04/06 10:13:27;;;;;;;;;;;10.60;99.90;;;;;;5064031;28;19921;-72
2022/04/06 10:15:54;;;;;;;;;;;10.70;99.90;;;;;;5063757;28;19983;-72
2022/04/06 10:18:21;;;;;;;;;;;10.60;99.90;;;;;;5063493;28;20204;-73
2022/04/06 10:20:51;;;;;;;;;;;10.70;99.90;;;;;;5063714;28;19921;-73
2022/04/06 10:23:22;;;;;;;;;;;10.80;99.90;;;;;;5063991;28;19925;-72
2022/04/06 10:25:52;;;;;;;;;;;10.80;99.90;;;;;;5063816;28;19920;-74
2022/04/06 10:28:21;;;;;;;;;;;11.00;99.90;;;;;;5063450;28;19928;-74
2022/04/06 10:31:08;;;;;;;;;;;11.10;99.90;;;;;;5063583;28;19928;-74
2022/04/06 10:33:36;;;;;;;;;;;11.30;99.90;;;;;;5062831;28;19920;-74
2022/04/06 10:36:16;;;;;;;;;;;11.40;99.90;;;;;;5063467;28;19920;-76
2022/04/06 10:39:10;;;;;;;;;;;11.50;99.90;;;;;;5063356;28;19921;-73
2022/04/06 10:41:38;;;;;;;;;;;11.50;99.90;;;;;;5064423;28;19927;-73
2022/04/06 10:44:06;;;;;;;;;;;11.60;99.90;;;;;;5063552;28;19921;-73
2022/04/06 10:46:34;;;;;;;;;;;11.70;99.90;;;;;;5063268;28;19984;-73
2022/04/06 10:49:13;;;;;;;;;;;11.70;99.90;;;;;;5063271;28;20204;-72
2022/04/06 10:51:41;;;;;;;;;;;11.70;99.90;;;;;;5063230;28;19971;-72
2022/04/06 10:54:28;;;;;;;;;;;11.60;99.90;;;;;;5063196;28;19974;-73
2022/04/06 10:56:55;;;;;;;;;;;11.60;99.90;;;;;;5063162;28;20176;-74
2022/04/06 10:59:23;;;;;;;;;;;11.60;99.90;;;;;;5063110;28;20156;-73
2022/04/06 11:01:50;;;;;;;;;;;11.70;99.90;;;;;;5063089;28;20204;-74
2022/04/06 11:04:17;;;;;;;;;;;11.60;99.90;;;;;;5063117;28;19921;-74
2022/04/06 11:07:00;;;;;;;;;;;11.70;99.90;;;;;;5061957;28;21943;-73
2022/04/06 11:12:13;;;;;;;;;;;12.00;99.90;;;;;;5063292;28;19928;-74
2022/04/06 11:14:41;;;;;;;;;;;12.20;99.90;;;;;;5062969;28;19921;-73
2022/04/06 11:17:34;;;;;;;;;;;12.30;99.90;;;;;;5062573;28;19921;-73
2022/04/06 11:20:01;;;;;;;;;;;12.30;99.90;;;;;;5044187;28;19959;-73
2022/04/06 11:22:28;;;;;;;;;;;12.20;99.90;;;;;;5062905;28;19928;-73
2022/04/06 11:24:55;;;;;;;;;;;12.40;99.90;;;;;;5062969;28;20216;-73
2022/04/06 11:27:26;;;;;;;;;;;12.30;99.90;;;;;;5062449;28;19936;-72
2022/04/06 11:29:59;;;;;;;;;;;12.30;99.90;;;;;;5063068;28;19943;-74
2022/04/06 11:32:26;;;;;;;;;;;12.30;99.90;;;;;;5062650;28;20204;-73
2022/04/06 11:34:58;;;;;;;;;;;12.30;99.90;;;;;;5062604;28;19925;-73
2022/04/06 11:37:25;;;;;;;;;;;12.30;99.90;;;;;;5061269;28;19921;-74
2022/04/06 11:39:55;;;;;;;;;;;12.20;99.90;;;;;;5062827;28;19921;-74
2022/04/06 11:42:22;;;;;;;;;;;12.40;99.90;;;;;;5063084;28;19920;-73
2022/04/06 11:44:48;;;;;;;;;;;12.50;99.90;;;;;;5062956;28;19927;-73
2022/04/06 11:47:16;;;;;;;;;;;12.50;99.90;;;;;;5062647;28;19921;-73
2022/04/06 11:49:43;;;;;;;;;;;12.40;99.90;;;;;;5062732;28;19921;-73
2022/04/06 11:52:10;;;;;;;;;;;12.40;99.90;;;;;;5062714;28;19943;-73
2022/04/06 11:54:36;;;;;;;;;;;12.40;99.90;;;;;;5062812;28;19936;-72
2022/04/06 11:57:03;;;;;;;;;;;12.40;99.90;;;;;;5062574;28;19921;-74
2022/04/06 11:59:31;;;;;;;;;;;12.50;99.90;;;;;;5062482;28;19920;-74
2022/04/06 12:01:59;;;;;;;;;;;12.60;99.90;;;;;;5062574;28;19924;-74
2022/04/06 12:04:27;;;;;;;;;;;12.60;99.90;;;;;;5062650;28;19921;-72
2022/04/06 12:06:54;;;;;;;;;;;12.70;99.90;;;;;;5062732;28;19983;-72
2022/04/06 12:09:22;;;;;;;;;;;12.70;99.90;;;;;;5066518;28;19920;-72
2022/04/06 12:11:51;;;;;;;;;;;12.90;99.90;;;;;;5066308;28;20234;-72
2022/04/06 12:14:19;;;;;;;;;;;13.00;99.90;;;;;;5066578;28;19921;-72
2022/04/06 12:16:45;;;;;;;;;;;13.10;99.90;;;;;;5066105;28;19921;-72
2022/04/06 12:19:15;;;;;;;;;;;13.20;99.90;;;;;;5066254;28;19921;-72
2022/04/06 12:21:44;;;;;;;;;;;13.40;99.90;;;;;;5066519;28;19928;-72
2022/04/06 12:24:11;;;;;;;;;;;13.70;99.90;;;;;;5060363;28;19921;-72
2022/04/06 12:26:43;;;;;;;;;;;13.70;99.90;;;;;;5045740;28;19921;-73
2022/04/06 12:29:13;;;;;;;;;;;13.70;99.90;;;;;;5046036;28;20128;-72
2022/04/06 12:31:41;;;;;;;;;;;13.60;99.90;;;;;;5062970;28;19920;-72
2022/04/06 12:34:08;;;;;;;;;;;13.60;99.90;;;;;;5065909;28;20128;-72
2022/04/06 12:36:35;;;;;;;;;;;13.50;99.90;;;;;;5065622;28;20129;-70
2022/04/06 12:39:06;;;;;;;;;;;13.50;99.90;;;;;;5065978;28;20124;-72
2022/04/06 12:41:34;;;;;;;;;;;13.50;99.90;;;;;;5065756;28;19966;-72
2022/04/06 12:44:02;;;;;;;;;;;13.60;99.90;;;;;;5065690;28;19927;-72
2022/04/06 12:46:41;;;;;;;;;;;13.70;99.90;;;;;;5064995;28;20007;-72
2022/04/06 12:49:35;;;;;;;;;;;13.70;99.90;;;;;;5065638;28;19921;-74
2022/04/06 12:52:03;;;;;;;;;;;13.80;99.90;;;;;;5047225;28;19960;-72
2022/04/06 12:54:32;;;;;;;;;;;13.70;99.90;;;;;;5065514;28;19924;-72
2022/04/06 12:57:09;;;;;;;;;;;13.70;99.90;;;;;;5064989;28;19928;-71
2022/04/06 12:59:36;;;;;;;;;;;13.50;99.90;;;;;;5065434;28;19963;-72
2022/04/06 13:02:04;;;;;;;;;;;13.60;99.90;;;;;;5065789;28;19967;-72
2022/04/06 13:04:31;;;;;;;;;;;13.60;99.90;;;;;;5065119;28;19920;-71
2022/04/06 13:06:57;;;;;;;;;;;13.60;99.90;;;;;;5064843;28;19921;-72
2022/04/06 13:09:24;;;;;;;;;;;13.60;99.90;;;;;;5064921;28;20097;-72
2022/04/06 13:11:52;;;;;;;;;;;13.60;99.90;;;;;;5065054;28;19920;-72
2022/04/06 13:14:20;;;;;;;;;;;13.60;99.90;;;;;;5065002;28;19983;-72
2022/04/06 13:16:47;;;;;;;;;;;13.90;99.90;;;;;;5065052;28;19920;-71
2022/04/06 13:19:15;;;;;;;;;;;14.20;99.90;;;;;;5064701;28;19924;-71
2022/04/06 13:21:41;;;;;;;;;;;14.30;99.90;;;;;;5065065;28;19967;-71
2022/04/06 13:24:08;;;;;;;;;;;14.20;99.90;;;;;;5065186;28;19921;-71
2022/04/06 13:26:35;;;;;;;;;;;14.20;99.90;;;;;;5064782;28;19921;-71
2022/04/06 13:29:03;;;;;;;;;;;14.10;99.90;;;;;;5064241;28;19928;-71
2022/04/06 13:31:29;;;;;;;;;;;14.20;99.90;;;;;;5064805;28;19943;-71
2022/04/06 13:33:56;;;;;;;;;;;14.60;99.90;;;;;;5064846;28;19925;-71
2022/04/06 13:36:22;;;;;;;;;;;14.90;99.90;;;;;;5064624;28;19920;-71
2022/04/06 13:38:49;;;;;;;;;;;15.00;99.90;;;;;;5064750;28;20227;-71
2022/04/06 13:41:16;;;;;;;;;;;15.10;99.90;;;;;;5064790;28;19921;-72
2022/04/06 13:43:42;;;;;;;;;;;15.10;99.90;;;;;;5064437;28;19927;-71
2022/04/06 13:46:12;;;;;;;;;;;14.90;99.90;;;;;;5064320;28;19943;-72
2022/04/06 13:48:38;;;;;;;;;;;14.80;99.90;;;;;;5064741;28;19920;-72
2022/04/06 13:51:06;;;;;;;;;;;14.80;99.90;;;;;;5064502;28;19921;-71
2022/04/06 13:53:33;;;;;;;;;;;14.70;99.90;;;;;;5064521;28;19936;-72
2022/04/06 13:55:59;;;;;;;;;;;14.60;99.90;;;;;;5064094;28;19921;-72
2022/04/06 13:58:26;;;;;;;;;;;14.60;99.90;;;;;;5064061;28;19920;-73
2022/04/06 14:00:53;;;;;;;;;;;14.60;99.90;;;;;;5064330;28;19947;-72
2022/04/06 14:03:20;;;;;;;;;;;14.90;99.90;;;;;;5064314;28;19925;-72
2022/04/06 14:05:48;;;;;;;;;;;15.20;99.90;;;;;;5064431;28;19929;-72
2022/04/06 14:08:14;;;;;;;;;;;15.30;99.90;;;;;;5064019;28;19928;-72
2022/04/06 14:10:41;;;;;;;;;;;15.20;99.90;;;;;;5063759;28;20267;-72
2022/04/06 14:13:07;;;;;;;;;;;15.20;99.90;;;;;;5064190;28;20116;-72
2022/04/06 14:15:34;;;;;;;;;;;15.40;99.90;;;;;;5063871;28;19987;-72
2022/04/06 14:18:01;;;;;;;;;;;15.50;99.90;;;;;;5063801;28;19927;-72
2022/04/06 14:20:28;;;;;;;;;;;15.70;99.90;;;;;;5063893;28;19921;-71
2022/04/06 14:22:55;;;;;;;;;;;15.60;99.90;;;;;;5064336;28;19921;-71
2022/04/06 14:25:23;;;;;;;;;;;15.70;99.90;;;;;;5063883;28;19921;-71
2022/04/06 14:27:51;;;;;;;;;;;15.90;99.90;;;;;;5064103;28;19921;-72
2022/04/06 14:30:17;;;;;;;;;;;16.10;99.90;;;;;;5063595;28;19921;-71
2022/04/06 14:32:44;;;;;;;;;;;16.10;99.90;;;;;;5063643;28;19983;-71
2022/04/06 14:35:12;;;;;;;;;;;16.30;99.90;;;;;;5063561;28;19920;-71
2022/04/06 14:37:40;;;;;;;;;;;16.40;99.90;;;;;;5063662;28;19921;-71